createdAt,value
2018-08-11T00:00:57.075Z,0.70
2018-08-11T00:03:25.862Z,0.50
2018-08-11T00:05:54.555Z,0.77
2018-08-11T00:08:23.115Z,0.63
2018-08-11T00:10:51.714Z,0.60
2018-08-11T00:13:20.438Z,0.60
2018-08-11T00:15:49.291Z,0.90
2018-08-11T00:18:17.834Z,0.70
2018-08-11T00:20:46.435Z,0.80
2018-08-11T00:23:15.188Z,0.60
2018-08-11T00:25:43.890Z,0.80
2018-08-11T00:28:12.638Z,0.80
2018-08-11T00:30:41.302Z,0.40
2018-08-11T00:33:10.089Z,0.33
2018-08-11T00:35:38.772Z,0.50
2018-08-11T00:38:07.382Z,0.50
2018-08-11T00:40:37.065Z,0.80
2018-08-11T00:43:05.832Z,0.43
2018-08-11T00:45:34.438Z,0.70
2018-08-11T00:48:03.721Z,0.50
2018-08-11T00:50:35.745Z,0.50
2018-08-11T00:53:05.255Z,0.90
2018-08-11T00:55:33.885Z,0.60
2018-08-11T00:58:02.640Z,0.60
2018-08-11T01:00:31.359Z,0.53
2018-08-11T01:03:00.008Z,0.63
2018-08-11T01:05:28.603Z,0.60
2018-08-11T01:07:57.263Z,0.70
2018-08-11T01:10:25.898Z,0.50
2018-08-11T01:12:54.535Z,0.50
2018-08-11T01:15:23.675Z,0.43
2018-08-11T01:17:52.838Z,0.90
2018-08-11T01:20:21.456Z,0.47
2018-08-11T01:22:50.743Z,0.83
2018-08-11T01:25:19.543Z,0.60
2018-08-11T01:27:48.175Z,0.57
2018-08-11T01:30:19.718Z,0.63
2018-08-11T01:32:48.365Z,0.70
2018-08-11T01:35:17.065Z,0.90
2018-08-11T01:37:46.322Z,0.70
2018-08-11T01:40:16.307Z,0.83
2018-08-11T01:42:46.138Z,0.70
2018-08-11T01:45:15.578Z,1.00
2018-08-11T01:47:44.468Z,0.57
2018-08-11T01:50:14.372Z,0.60
2018-08-11T01:52:44.399Z,0.77
2018-08-11T01:55:14.916Z,0.73
2018-08-11T01:57:43.612Z,0.80
2018-08-11T02:00:13.801Z,0.60
2018-08-11T02:02:42.670Z,0.60
2018-08-11T02:05:12.392Z,0.60
2018-08-11T02:07:42.503Z,0.70
2018-08-11T02:10:15.900Z,0.90
2018-08-11T02:12:44.841Z,0.90
2018-08-11T02:15:14.351Z,0.90
2018-08-11T02:17:43.034Z,0.80
2018-08-11T02:20:13.606Z,1.00
2018-08-11T02:22:43.422Z,0.70
2018-08-11T02:25:12.594Z,0.50
2018-08-11T02:27:41.343Z,0.60
2018-08-11T02:30:13.324Z,0.53
2018-08-11T02:32:42.247Z,0.57
2018-08-11T02:35:11.971Z,0.70
2018-08-11T02:37:41.113Z,0.47
2018-08-11T02:40:11.419Z,0.50
2018-08-11T02:42:40.022Z,0.70
2018-08-11T02:45:10.439Z,1.00
2018-08-11T02:47:39.233Z,0.90
2018-08-11T02:50:09.643Z,0.83
2018-08-11T02:52:39.387Z,0.77
2018-08-11T02:55:08.155Z,0.60
2018-08-11T02:57:36.943Z,0.80
2018-08-11T03:00:07.536Z,0.83
2018-08-11T03:02:36.466Z,0.80
2018-08-11T03:05:05.356Z,0.83
2018-08-11T03:07:35.159Z,1.10
2018-08-11T03:10:03.775Z,0.93
2018-08-11T03:12:32.383Z,0.87
2018-08-11T03:15:01.024Z,0.70
2018-08-11T03:17:29.651Z,0.87
2018-08-11T03:19:58.209Z,0.60
2018-08-11T03:22:26.868Z,0.93
2018-08-11T03:24:55.785Z,0.73
2018-08-11T03:27:24.545Z,0.93
2018-08-11T03:29:53.123Z,0.80
2018-08-11T03:32:21.712Z,0.87
2018-08-11T03:34:50.398Z,0.90
2018-08-11T03:37:19.034Z,0.73
2018-08-11T03:39:47.663Z,0.77
2018-08-11T03:42:16.365Z,0.80
2018-08-11T03:44:44.932Z,0.97
2018-08-11T03:47:13.471Z,0.93
2018-08-11T03:49:42.095Z,0.77
2018-08-11T03:52:10.783Z,1.00
2018-08-11T03:54:39.347Z,1.10
2018-08-11T03:57:07.910Z,0.80
2018-08-11T03:59:36.634Z,1.00
2018-08-11T04:02:05.421Z,0.87
2018-08-11T04:04:34.209Z,0.60
2018-08-11T04:07:02.792Z,0.70
2018-08-11T04:09:31.404Z,0.90
2018-08-11T04:12:00.062Z,0.90
2018-08-11T04:14:28.590Z,0.80
2018-08-11T04:16:57.431Z,0.60
2018-08-11T04:19:26.117Z,0.70
2018-08-11T04:21:54.749Z,0.83
2018-08-11T04:24:23.340Z,0.90
2018-08-11T04:26:51.913Z,0.93
2018-08-11T04:29:20.549Z,0.73
2018-08-11T04:31:49.042Z,0.73
2018-08-11T04:34:17.666Z,0.93
2018-08-11T04:36:46.246Z,1.00
2018-08-11T04:39:15.086Z,0.70
2018-08-11T04:41:44.128Z,0.83
2018-08-11T04:44:12.789Z,1.13
2018-08-11T04:46:41.553Z,0.80
2018-08-11T04:49:10.091Z,1.00
2018-08-11T04:51:38.647Z,1.00
2018-08-11T04:54:07.358Z,0.83
2018-08-11T04:56:35.915Z,1.07
2018-08-11T04:59:04.568Z,0.80
2018-08-11T05:01:33.209Z,0.63
2018-08-11T05:04:01.728Z,0.70
2018-08-11T05:06:30.392Z,0.80
2018-08-11T05:08:59.051Z,0.90
2018-08-11T05:11:27.606Z,0.70
2018-08-11T05:13:56.190Z,0.80
2018-08-11T05:16:24.955Z,0.70
2018-08-11T05:18:53.499Z,0.97
2018-08-11T05:21:22.224Z,1.00
2018-08-11T05:23:50.806Z,0.90
2018-08-11T05:26:19.354Z,0.70
2018-08-11T05:28:48.077Z,0.90
2018-08-11T05:31:16.826Z,0.87
2018-08-11T05:33:46.470Z,0.80
2018-08-11T05:36:15.182Z,0.80
2018-08-11T05:38:43.806Z,0.80
2018-08-11T05:41:12.422Z,0.60
2018-08-11T05:43:41.110Z,0.90
2018-08-11T05:46:09.793Z,1.03
2018-08-11T05:48:38.376Z,1.00
2018-08-11T05:51:07.607Z,0.87
2018-08-11T05:53:36.203Z,0.90
2018-08-11T05:56:05.151Z,0.73
2018-08-11T05:58:33.732Z,1.10
2018-08-11T06:01:02.372Z,0.90
2018-08-11T06:03:31.264Z,1.17
2018-08-11T06:05:59.971Z,0.83
2018-08-11T06:08:29.366Z,1.30
2018-08-11T06:10:57.890Z,1.07
2018-08-11T06:13:26.431Z,1.03
2018-08-11T06:15:55.143Z,1.13
2018-08-11T06:18:23.916Z,1.00
2018-08-11T06:20:52.616Z,0.90
2018-08-11T06:23:21.302Z,0.67
2018-08-11T06:25:50.263Z,0.90
2018-08-11T06:28:18.763Z,1.10
2018-08-11T06:30:47.460Z,0.87
2018-08-11T06:33:16.098Z,1.10
2018-08-11T06:35:44.728Z,0.93
2018-08-11T06:38:13.310Z,1.17
2018-08-11T06:40:42.019Z,0.93
2018-08-11T06:43:10.603Z,0.97
2018-08-11T06:45:39.160Z,1.27
2018-08-11T06:48:07.831Z,1.00
2018-08-11T06:50:37.199Z,0.90
2018-08-11T06:53:05.974Z,1.00
2018-08-11T06:55:34.590Z,0.90
2018-08-11T06:58:04.425Z,0.97
2018-08-11T07:00:33.576Z,0.90
2018-08-11T07:03:02.317Z,0.80
2018-08-11T07:05:30.896Z,1.20
2018-08-11T07:07:59.475Z,0.93
2018-08-11T07:10:27.995Z,1.33
2018-08-11T07:12:56.646Z,1.13
2018-08-11T07:15:25.409Z,1.30
2018-08-11T07:17:53.959Z,1.30
2018-08-11T07:20:22.703Z,1.30
2018-08-11T07:22:51.349Z,1.47
2018-08-11T07:25:19.906Z,1.73
2018-08-11T07:27:48.507Z,1.17
2018-08-11T07:30:17.153Z,0.97
2018-08-11T07:32:45.971Z,1.10
2018-08-11T07:35:14.506Z,0.90
2018-08-11T07:37:43.135Z,1.10
2018-08-11T07:40:11.727Z,1.10
2018-08-11T07:42:40.459Z,0.80
2018-08-11T07:45:09.236Z,1.10
2018-08-11T07:47:38.014Z,0.97
2018-08-11T07:50:06.677Z,1.10
2018-08-11T07:52:35.712Z,0.90
2018-08-11T07:55:04.350Z,1.10
2018-08-11T07:57:33.139Z,0.80
2018-08-11T08:00:02.085Z,1.10
2018-08-11T08:02:30.769Z,1.10
2018-08-11T08:04:59.551Z,0.80
2018-08-11T08:07:28.121Z,1.00
2018-08-11T08:09:56.751Z,1.20
2018-08-11T08:12:25.879Z,0.80
2018-08-11T08:14:54.493Z,0.77
2018-08-11T08:17:23.129Z,1.20
2018-08-11T08:19:51.764Z,1.10
2018-08-11T08:22:20.345Z,1.70
2018-08-11T08:24:49.132Z,1.57
2018-08-11T08:27:18.474Z,1.20
2018-08-11T08:29:47.038Z,1.33
2018-08-11T08:32:15.704Z,0.80
2018-08-11T08:34:44.491Z,0.90
2018-08-11T08:37:13.011Z,0.90
2018-08-11T08:39:41.656Z,0.50
2018-08-11T08:42:10.751Z,0.77
2018-08-11T08:44:39.440Z,0.60
2018-08-11T08:47:08.125Z,0.80
2018-08-11T08:49:36.805Z,0.50
2018-08-11T08:52:05.342Z,0.80
2018-08-11T08:54:34.194Z,0.50
2018-08-11T08:57:02.973Z,0.57
2018-08-11T08:59:31.625Z,0.77
2018-08-11T09:02:00.283Z,0.50
2018-08-11T09:04:28.919Z,0.90
2018-08-11T09:06:58.203Z,0.80
2018-08-11T09:09:26.734Z,0.77
2018-08-11T09:11:55.323Z,0.63
2018-08-11T09:14:24.490Z,0.80
2018-08-11T09:16:53.118Z,0.50
2018-08-11T09:19:22.367Z,0.60
2018-08-11T09:21:50.994Z,0.70
2018-08-11T09:24:19.561Z,0.50
2018-08-11T09:26:48.213Z,0.80
2018-08-11T09:29:16.933Z,0.70
2018-08-11T09:31:45.474Z,0.60
2018-08-11T09:34:14.478Z,0.70
2018-08-11T09:36:43.164Z,0.60
2018-08-11T09:39:12.514Z,0.80
2018-08-11T09:41:41.399Z,0.80
2018-08-11T09:44:10.517Z,0.77
2018-08-11T09:46:39.135Z,0.77
2018-08-11T09:49:07.811Z,0.80
2018-08-11T09:51:36.446Z,0.43
2018-08-11T09:54:05.135Z,0.70
2018-08-11T09:56:33.685Z,0.80
2018-08-11T09:59:02.315Z,0.67
2018-08-11T10:01:36.153Z,0.70
2018-08-11T10:04:04.743Z,0.93
2018-08-11T10:06:33.319Z,0.80
2018-08-11T10:09:01.943Z,0.73
2018-08-11T10:11:31.220Z,1.10
2018-08-11T10:13:59.743Z,0.97
2018-08-11T10:16:28.470Z,0.93
2018-08-11T10:18:57.054Z,1.00
2018-08-11T10:21:25.590Z,1.20
2018-08-11T10:23:54.929Z,0.90
2018-08-11T10:26:23.436Z,0.97
2018-08-11T10:28:52.202Z,1.03
2018-08-11T10:31:21.502Z,1.00
2018-08-11T10:33:50.037Z,0.93
2018-08-11T10:36:18.668Z,1.00
2018-08-11T10:38:47.340Z,0.87
2018-08-11T10:41:15.938Z,1.20
2018-08-11T10:43:44.471Z,1.30
2018-08-11T10:46:13.035Z,1.40
2018-08-11T10:48:41.626Z,1.63
2018-08-11T10:51:10.724Z,1.43
2018-08-11T10:53:39.465Z,1.70
2018-08-11T10:56:07.975Z,1.53
2018-08-11T10:58:36.559Z,1.80
2018-08-11T11:01:05.281Z,1.93
2018-08-11T11:03:34.124Z,1.73
2018-08-11T11:06:02.734Z,2.27
2018-08-11T11:08:31.435Z,2.30
2018-08-11T11:11:00.022Z,2.57
2018-08-11T11:13:28.531Z,2.40
2018-08-11T11:15:57.692Z,2.20
2018-08-11T11:18:27.931Z,2.50
2018-08-11T11:20:58.256Z,2.20
2018-08-11T11:23:26.736Z,2.17
2018-08-11T11:25:55.395Z,2.40
2018-08-11T11:28:23.987Z,2.07
2018-08-11T11:30:52.602Z,2.03
2018-08-11T11:33:21.197Z,1.80
2018-08-11T11:35:50.292Z,2.13
2018-08-11T11:38:18.978Z,2.13
2018-08-11T11:40:47.722Z,1.87
2018-08-11T11:43:16.328Z,2.02
2018-08-11T11:45:44.854Z,1.73
2018-08-11T11:48:14.946Z,2.60
2018-08-11T11:50:44.171Z,1.47
2018-08-11T11:53:14.346Z,2.20
2018-08-11T11:55:43.561Z,1.65
2018-08-11T11:58:12.170Z,1.20
2018-08-11T12:00:40.672Z,1.32
2018-08-11T12:03:09.311Z,1.37
2018-08-11T12:05:37.973Z,1.57
2018-08-11T12:08:06.602Z,1.30
2018-08-11T12:10:35.262Z,1.85
2018-08-11T12:13:04.638Z,1.37
2018-08-11T12:15:33.861Z,1.25
2018-08-11T12:18:02.389Z,1.57
2018-08-11T12:20:30.943Z,1.32
2018-08-11T12:22:59.517Z,1.37
2018-08-11T12:25:28.015Z,0.95
2018-08-11T12:27:57.376Z,0.78
2018-08-11T12:30:25.972Z,0.70
2018-08-11T12:32:54.555Z,0.50
2018-08-11T12:35:23.445Z,0.70
2018-08-11T12:37:52.123Z,0.62
2018-08-11T12:40:20.611Z,0.50
2018-08-11T12:42:49.318Z,0.60
2018-08-11T12:45:17.985Z,0.60
2018-08-11T12:47:46.606Z,0.80
2018-08-11T12:50:15.107Z,0.60
2018-08-11T12:52:43.718Z,0.50
2018-08-11T12:55:12.276Z,0.50
2018-08-11T12:57:40.843Z,0.60
2018-08-11T13:00:10.453Z,0.42
2018-08-11T13:02:39.238Z,0.55
2018-08-11T13:05:07.874Z,0.70
2018-08-11T13:07:36.482Z,0.50
2018-08-11T13:10:06.330Z,0.60
2018-08-11T13:12:34.898Z,0.53
2018-08-11T13:15:03.438Z,0.70
2018-08-11T13:17:31.939Z,0.30
2018-08-11T13:20:01.322Z,0.45
2018-08-11T13:22:29.928Z,0.72
2018-08-11T13:24:58.586Z,0.47
2018-08-11T13:27:27.154Z,0.50
2018-08-11T13:29:55.751Z,0.50
2018-08-11T13:32:24.337Z,0.57
2018-08-11T13:34:52.911Z,0.50
2018-08-11T13:37:21.396Z,0.53
2018-08-11T13:39:51.978Z,0.60
2018-08-11T13:42:21.123Z,0.60
2018-08-11T13:44:49.614Z,0.60
2018-08-11T13:47:18.106Z,0.50
2018-08-11T13:49:46.761Z,0.65
2018-08-11T13:52:15.178Z,0.50
2018-08-11T13:54:43.679Z,0.60
2018-08-11T13:57:12.236Z,0.50
2018-08-11T13:59:40.897Z,0.50
2018-08-11T14:02:09.547Z,0.33
2018-08-11T14:04:38.163Z,0.47
2018-08-11T14:07:06.663Z,0.50
2018-08-11T14:09:35.998Z,0.40
2018-08-11T14:12:04.630Z,0.60
2018-08-11T14:14:33.163Z,0.50
2018-08-11T14:17:01.756Z,0.65
2018-08-11T14:19:30.992Z,0.50
2018-08-11T14:21:59.678Z,0.47
2018-08-11T14:24:28.569Z,0.47
2018-08-11T14:26:57.093Z,0.40
2018-08-11T14:29:25.671Z,0.60
2018-08-11T14:31:54.419Z,0.42
2018-08-11T14:34:23.002Z,0.47
2018-08-11T14:36:51.514Z,0.40
2018-08-11T14:39:20.372Z,0.40
2018-08-11T14:41:49.143Z,0.50
2018-08-11T14:44:17.635Z,0.50
2018-08-11T14:46:46.286Z,0.50
2018-08-11T14:49:14.855Z,0.60
2018-08-11T14:51:43.491Z,0.60
2018-08-11T14:54:12.034Z,0.50
2018-08-11T14:56:40.659Z,0.42
2018-08-11T14:59:09.231Z,0.47
2018-08-11T15:01:37.978Z,0.55
2018-08-11T15:04:06.714Z,0.78
2018-08-11T15:06:35.883Z,0.60
2018-08-11T15:09:06.485Z,0.30
2018-08-11T15:11:35.027Z,0.50
2018-08-11T15:14:03.900Z,0.20
2018-08-11T15:16:32.556Z,0.40
2018-08-11T15:19:01.180Z,0.45
2018-08-11T15:21:30.480Z,0.55
2018-08-11T15:23:59.263Z,0.78
2018-08-11T15:26:28.137Z,0.70
2018-08-11T15:28:56.790Z,0.70
2018-08-11T15:31:25.381Z,0.50
2018-08-11T15:33:53.960Z,0.40
2018-08-11T15:36:22.594Z,0.60
2018-08-11T15:38:51.111Z,0.70
2018-08-11T15:41:19.803Z,0.88
2018-08-11T15:43:48.400Z,0.82
2018-08-11T15:46:17.443Z,0.70
2018-08-11T15:48:46.104Z,0.68
2018-08-11T15:51:15.267Z,0.40
2018-08-11T15:53:44.126Z,0.40
2018-08-11T15:56:12.791Z,0.47
2018-08-11T15:58:41.326Z,0.50
2018-08-11T16:01:09.891Z,0.45
2018-08-11T16:03:38.570Z,0.47
2018-08-11T16:06:07.150Z,0.50
2018-08-11T16:08:35.754Z,0.42
2018-08-11T16:11:04.597Z,0.40
2018-08-11T16:13:33.179Z,0.42
2018-08-11T16:16:02.272Z,0.70
2018-08-11T16:18:30.838Z,0.53
2018-08-11T16:20:59.386Z,0.55
2018-08-11T16:23:28.738Z,0.75
2018-08-11T16:25:57.252Z,0.50
2018-08-11T16:28:25.904Z,0.50
2018-08-11T16:30:54.487Z,0.30
2018-08-11T16:33:22.998Z,0.40
2018-08-11T16:35:51.665Z,0.40
2018-08-11T16:38:20.283Z,0.30
2018-08-11T16:40:48.888Z,0.40
2018-08-11T16:43:17.504Z,0.42
2018-08-11T16:45:46.110Z,0.40
2018-08-11T16:48:15.318Z,0.40
2018-08-11T16:50:44.071Z,0.53
2018-08-11T16:53:12.759Z,0.62
2018-08-11T16:55:41.266Z,0.50
2018-08-11T16:58:09.834Z,0.40
2018-08-11T17:00:38.480Z,0.68
2018-08-11T17:03:07.190Z,0.50
2018-08-11T17:05:35.699Z,0.50
2018-08-11T17:08:04.338Z,0.30
2018-08-11T17:10:32.859Z,0.40
2018-08-11T17:13:01.569Z,0.50
2018-08-11T17:15:30.130Z,0.60
2018-08-11T17:17:58.830Z,0.37
2018-08-11T17:20:27.956Z,0.40
2018-08-11T17:22:56.526Z,0.50
2018-08-11T17:25:25.157Z,0.50
2018-08-11T17:27:54.395Z,0.60
2018-08-11T17:30:22.941Z,0.40
2018-08-11T17:32:51.623Z,0.50
2018-08-11T17:35:20.224Z,0.40
2018-08-11T17:37:49.051Z,0.50
2018-08-11T17:40:17.595Z,0.50
2018-08-11T17:42:46.321Z,0.57
2018-08-11T17:45:15.249Z,0.47
2018-08-11T17:47:43.834Z,0.60
2018-08-11T17:50:12.469Z,0.35
2018-08-11T17:52:41.048Z,0.50
2018-08-11T17:55:09.686Z,0.70
2018-08-11T17:57:38.586Z,0.53
2018-08-11T18:00:07.205Z,0.60
2018-08-11T18:02:36.050Z,0.50
2018-08-11T18:05:05.117Z,0.55
2018-08-11T18:07:33.842Z,0.53
2018-08-11T18:10:02.475Z,0.57
2018-08-11T18:12:31.097Z,0.70
2018-08-11T18:14:59.883Z,0.90
2018-08-11T18:17:28.568Z,0.80
2018-08-11T18:19:57.311Z,0.90
2018-08-11T18:22:25.838Z,0.87
2018-08-11T18:24:55.370Z,0.60
2018-08-11T18:27:24.829Z,0.70
2018-08-11T18:29:53.538Z,0.90
2018-08-11T18:32:22.217Z,0.80
2018-08-11T18:34:51.338Z,1.00
2018-08-11T18:37:19.915Z,0.83
2018-08-11T18:39:48.579Z,0.97
2018-08-11T18:42:17.683Z,0.90
2018-08-11T18:44:46.357Z,0.93
2018-08-11T18:47:14.874Z,1.10
2018-08-11T18:49:43.466Z,1.13
2018-08-11T18:52:12.854Z,1.32
2018-08-11T18:54:41.391Z,1.10
2018-08-11T18:57:10.019Z,1.00
2018-08-11T18:59:38.674Z,1.03
2018-08-11T19:02:07.427Z,0.57
2018-08-11T19:04:36.118Z,0.77
2018-08-11T19:07:04.783Z,0.60
2018-08-11T19:09:33.621Z,0.90
2018-08-11T19:12:02.309Z,0.90
2018-08-11T19:14:30.992Z,0.83
2018-08-11T19:16:59.754Z,0.80
2018-08-11T19:19:28.773Z,0.73
2018-08-11T19:21:57.501Z,0.90
2018-08-11T19:24:26.096Z,0.77
2018-08-11T19:26:54.798Z,0.70
2018-08-11T19:29:23.335Z,0.90
2018-08-11T19:31:51.982Z,0.80
2018-08-11T19:34:20.499Z,0.77
2018-08-11T19:36:49.268Z,0.83
2018-08-11T19:39:18.004Z,0.90
2018-08-11T19:41:46.635Z,0.80
2018-08-11T19:44:15.422Z,0.90
2018-08-11T19:46:44.043Z,0.80
2018-08-11T19:49:12.689Z,0.90
2018-08-11T19:51:41.432Z,0.97
2018-08-11T19:54:10.090Z,1.00
2018-08-11T19:56:38.635Z,1.00
2018-08-11T19:59:07.253Z,1.00
2018-08-11T20:01:35.824Z,0.97
2018-08-11T20:04:04.462Z,1.00
2018-08-11T20:06:33.170Z,0.90
2018-08-11T20:09:01.863Z,0.80
2018-08-11T20:11:30.418Z,1.30
2018-08-11T20:13:59.952Z,0.87
2018-08-11T20:16:28.571Z,1.10
2018-08-11T20:18:57.271Z,1.20
2018-08-11T20:21:25.851Z,1.10
2018-08-11T20:23:54.479Z,0.77
2018-08-11T20:26:23.185Z,0.90
2018-08-11T20:28:51.770Z,0.97
2018-08-11T20:31:20.382Z,0.80
2018-08-11T20:33:48.971Z,0.97
2018-08-11T20:36:17.550Z,0.73
2018-08-11T20:38:46.189Z,1.00
2018-08-11T20:41:14.858Z,0.70
2018-08-11T20:43:43.458Z,0.80
2018-08-11T20:46:12.178Z,0.60
2018-08-11T20:48:40.826Z,0.90
2018-08-11T20:51:09.470Z,0.70
2018-08-11T20:53:38.013Z,0.50
2018-08-11T20:56:06.678Z,0.40
2018-08-11T20:58:35.657Z,0.63
2018-08-11T21:01:04.437Z,0.60
2018-08-11T21:03:33.087Z,0.63
2018-08-11T21:06:01.836Z,0.60
2018-08-11T21:08:30.516Z,0.53
2018-08-11T21:10:59.126Z,0.70
2018-08-11T21:13:27.762Z,0.77
2018-08-11T21:15:56.367Z,0.60
2018-08-11T21:18:25.530Z,0.80
2018-08-11T21:20:54.079Z,0.60
2018-08-11T21:23:22.668Z,0.80
2018-08-11T21:25:51.308Z,0.80
2018-08-11T21:28:19.831Z,0.63
2018-08-11T21:30:48.477Z,0.63
2018-08-11T21:33:17.100Z,0.63
2018-08-11T21:35:45.744Z,0.70
2018-08-11T21:38:14.430Z,0.50
2018-08-11T21:40:43.019Z,0.67
2018-08-11T21:43:11.664Z,0.50
2018-08-11T21:45:40.250Z,0.80
2018-08-11T21:48:08.854Z,0.50
2018-08-11T21:50:37.448Z,0.50
2018-08-11T21:53:06.043Z,0.43
2018-08-11T21:55:34.635Z,0.63
2018-08-11T21:58:03.245Z,0.60
2018-08-11T22:00:35.009Z,0.50
2018-08-11T22:03:03.900Z,0.70
2018-08-11T22:05:32.528Z,0.60
2018-08-11T22:08:02.290Z,0.70
2018-08-11T22:10:31.390Z,0.90
2018-08-11T22:13:00.021Z,0.80
2018-08-11T22:15:28.643Z,0.70
2018-08-11T22:17:57.288Z,0.60
2018-08-11T22:20:25.974Z,0.60
2018-08-11T22:22:54.595Z,0.50
2018-08-11T22:25:23.134Z,0.40
2018-08-11T22:27:51.826Z,0.40
2018-08-11T22:30:20.426Z,0.50
2018-08-11T22:32:49.046Z,0.50
2018-08-11T22:35:17.674Z,0.60
2018-08-11T22:37:46.322Z,0.50
2018-08-11T22:40:14.931Z,0.50
2018-08-11T22:42:43.626Z,0.37
2018-08-11T22:45:12.824Z,0.30
2018-08-11T22:47:41.512Z,0.30
2018-08-11T22:50:12.916Z,0.47
2018-08-11T22:52:41.693Z,0.50
2018-08-11T22:55:10.686Z,0.37
2018-08-11T22:57:39.249Z,0.50
2018-08-11T23:00:12.819Z,0.30
2018-08-11T23:02:41.608Z,0.40
2018-08-11T23:05:10.179Z,0.40
2018-08-11T23:07:39.235Z,0.50
2018-08-11T23:10:09.699Z,0.47
2018-08-11T23:12:38.335Z,0.53
2018-08-11T23:15:09.271Z,0.50
2018-08-11T23:17:37.963Z,1.47
2018-08-11T23:20:07.271Z,1.60
2018-08-11T23:22:36.051Z,1.30
2018-08-11T23:25:05.509Z,0.60
2018-08-11T23:27:34.339Z,0.60
2018-08-11T23:30:03.086Z,0.40
2018-08-11T23:32:31.599Z,0.47
2018-08-11T23:35:00.198Z,0.50
2018-08-11T23:37:28.834Z,0.50
2018-08-11T23:39:57.417Z,0.60
2018-08-11T23:42:26.045Z,0.60
2018-08-11T23:44:54.599Z,0.60
2018-08-11T23:47:23.266Z,0.40
2018-08-11T23:49:51.890Z,0.60
2018-08-11T23:52:20.518Z,0.50
2018-08-11T23:54:49.134Z,0.60
2018-08-11T23:57:17.806Z,0.60
2018-08-11T23:59:46.592Z,0.50
